createdAt,value
2018-06-05T00:01:24.403Z,17.84
2018-06-05T00:03:52.768Z,17.85
2018-06-05T00:06:21.114Z,17.84
2018-06-05T00:08:49.482Z,17.80
2018-06-05T00:11:17.960Z,17.88
2018-06-05T00:13:46.346Z,17.74
2018-06-05T00:16:14.814Z,17.65
2018-06-05T00:18:43.169Z,17.79
2018-06-05T00:21:11.506Z,17.79
2018-06-05T00:23:39.686Z,17.81
2018-06-05T00:26:10.060Z,17.82
2018-06-05T00:28:38.665Z,17.90
2018-06-05T00:31:06.963Z,17.88
2018-06-05T00:33:35.438Z,18.05
2018-06-05T00:36:03.825Z,18.18
2018-06-05T00:38:32.202Z,18.10
2018-06-05T00:41:00.654Z,17.94
2018-06-05T00:43:29.047Z,17.95
2018-06-05T00:45:57.373Z,17.90
2018-06-05T00:48:25.729Z,17.95
2018-06-05T00:50:54.086Z,17.96
2018-06-05T00:53:22.499Z,18.07
2018-06-05T00:55:50.902Z,18.01
2018-06-05T00:58:19.212Z,18.05
2018-06-05T01:00:47.720Z,18.00
2018-06-05T01:03:15.997Z,18.05
2018-06-05T01:05:44.414Z,18.01
2018-06-05T01:08:12.810Z,18.12
2018-06-05T01:10:41.331Z,18.17
2018-06-05T01:13:09.674Z,18.19
2018-06-05T01:15:38.080Z,18.22
2018-06-05T01:18:06.406Z,18.18
2018-06-05T01:20:34.814Z,18.16
2018-06-05T01:23:03.266Z,18.03
2018-06-05T01:25:31.590Z,18.00
2018-06-05T01:27:59.922Z,18.01
2018-06-05T01:30:28.278Z,18.00
2018-06-05T01:32:56.669Z,18.04
2018-06-05T01:35:24.914Z,18.10
2018-06-05T01:37:53.281Z,18.10
2018-06-05T01:40:21.763Z,18.15
2018-06-05T01:42:50.081Z,18.21
2018-06-05T01:45:19.217Z,18.16
2018-06-05T01:47:47.397Z,18.27
2018-06-05T01:50:15.815Z,18.30
2018-06-05T01:52:44.146Z,18.17
2018-06-05T01:55:12.485Z,18.13
2018-06-05T01:57:40.748Z,18.18
2018-06-05T02:00:09.110Z,18.16
2018-06-05T02:02:37.431Z,18.03
2018-06-05T02:05:06.026Z,18.02
2018-06-05T02:07:34.402Z,18.10
2018-06-05T02:10:02.850Z,18.19
2018-06-05T02:12:31.275Z,18.04
2018-06-05T02:14:59.599Z,17.99
2018-06-05T02:17:28.066Z,18.17
2018-06-05T02:19:56.474Z,18.23
2018-06-05T02:22:24.802Z,18.22
2018-06-05T02:24:53.150Z,18.23
2018-06-05T02:27:21.482Z,18.24
2018-06-05T02:29:49.933Z,18.18
2018-06-05T02:32:18.221Z,18.31
2018-06-05T02:34:46.390Z,18.38
2018-06-05T02:37:14.807Z,18.47
2018-06-05T02:39:43.197Z,18.37
2018-06-05T02:42:11.545Z,18.36
2018-06-05T02:44:39.821Z,18.33
2018-06-05T02:47:08.217Z,18.33
2018-06-05T02:49:36.750Z,18.39
2018-06-05T02:52:05.048Z,18.50
2018-06-05T02:54:33.374Z,18.54
2018-06-05T02:57:01.718Z,18.54
2018-06-05T02:59:30.034Z,18.47
2018-06-05T03:01:58.414Z,18.38
2018-06-05T03:04:26.824Z,18.19
2018-06-05T03:06:55.160Z,18.19
2018-06-05T03:09:23.660Z,18.08
2018-06-05T03:11:52.004Z,18.06
2018-06-05T03:14:20.406Z,18.19
2018-06-05T03:16:49.014Z,18.18
2018-06-05T03:19:17.358Z,18.18
2018-06-05T03:21:45.710Z,18.23
2018-06-05T03:24:13.957Z,18.12
2018-06-05T03:26:42.291Z,18.02
2018-06-05T03:29:10.575Z,17.99
2018-06-05T03:31:38.890Z,17.96
2018-06-05T03:34:07.252Z,17.90
2018-06-05T03:36:35.819Z,17.93
2018-06-05T03:39:05.761Z,17.96
2018-06-05T03:41:34.147Z,18.02
2018-06-05T03:44:02.607Z,18.25
2018-06-05T03:46:30.939Z,18.50
2018-06-05T03:48:59.290Z,18.76
2018-06-05T03:51:27.644Z,18.79
2018-06-05T03:53:55.834Z,18.75
2018-06-05T03:56:24.242Z,18.83
2018-06-05T03:58:52.570Z,18.87
2018-06-05T04:01:20.921Z,18.79
2018-06-05T04:03:49.378Z,18.77
2018-06-05T04:06:20.721Z,18.93
2018-06-05T04:08:52.441Z,18.98
2018-06-05T04:11:22.279Z,19.06
2018-06-05T04:13:54.432Z,19.11
2018-06-05T04:16:23.561Z,19.19
2018-06-05T04:18:52.012Z,19.15
2018-06-05T04:21:20.345Z,18.87
2018-06-05T04:23:48.687Z,19.04
2018-06-05T04:26:17.350Z,18.78
2018-06-05T04:28:45.541Z,18.99
2018-06-05T04:31:13.898Z,18.97
2018-06-05T04:33:42.251Z,18.85
2018-06-05T04:36:10.476Z,19.00
2018-06-05T04:38:38.835Z,18.97
2018-06-05T04:41:07.177Z,18.79
2018-06-05T04:43:35.530Z,18.89
2018-06-05T04:46:03.902Z,18.97
2018-06-05T04:48:32.157Z,18.94
2018-06-05T04:51:00.535Z,18.96
2018-06-05T04:53:28.904Z,18.91
2018-06-05T04:55:57.253Z,18.99
2018-06-05T04:58:25.713Z,19.33
2018-06-05T05:00:54.093Z,19.16
2018-06-05T05:03:22.462Z,18.87
2018-06-05T05:05:50.798Z,18.76
2018-06-05T05:08:19.327Z,18.75
2018-06-05T05:10:47.881Z,18.81
2018-06-05T05:13:16.186Z,18.60
2018-06-05T05:15:44.416Z,18.69
2018-06-05T05:18:12.912Z,18.70
2018-06-05T05:20:41.229Z,18.71
2018-06-05T05:23:09.670Z,18.53
2018-06-05T05:25:38.023Z,18.23
2018-06-05T05:28:06.222Z,18.00
2018-06-05T05:30:34.518Z,17.88
2018-06-05T05:33:02.890Z,17.86
2018-06-05T05:35:31.162Z,17.90
2018-06-05T05:37:59.498Z,17.92
2018-06-05T05:40:27.857Z,18.14
2018-06-05T05:42:56.089Z,18.03
2018-06-05T05:45:24.498Z,17.88
2018-06-05T05:47:52.844Z,17.82
2018-06-05T05:50:21.226Z,17.82
2018-06-05T05:52:49.654Z,17.89
2018-06-05T05:55:17.981Z,17.99
2018-06-05T05:57:46.385Z,18.08
2018-06-05T06:00:14.765Z,18.05
2018-06-05T06:02:43.325Z,17.94
2018-06-05T06:05:11.642Z,17.93
2018-06-05T06:07:40.113Z,18.06
2018-06-05T06:10:08.555Z,18.06
2018-06-05T06:12:36.957Z,17.83
2018-06-05T06:15:05.554Z,17.83
2018-06-05T06:17:33.927Z,17.85
2018-06-05T06:20:02.412Z,17.93
2018-06-05T06:22:30.715Z,17.97
2018-06-05T06:24:59.153Z,18.09
2018-06-05T06:27:27.620Z,18.14
2018-06-05T06:29:55.977Z,18.18
2018-06-05T06:32:24.186Z,17.97
2018-06-05T06:34:52.531Z,18.12
2018-06-05T06:37:20.912Z,18.07
2018-06-05T06:39:49.463Z,18.02
2018-06-05T06:42:17.924Z,18.11
2018-06-05T06:44:46.289Z,18.00
2018-06-05T06:47:14.748Z,17.75
2018-06-05T06:49:43.181Z,17.90
2018-06-05T06:52:11.564Z,18.02
2018-06-05T06:54:39.986Z,18.05
2018-06-05T06:57:08.433Z,17.86
2018-06-05T06:59:36.888Z,17.89
2018-06-05T07:02:05.292Z,18.09
2018-06-05T07:04:33.937Z,18.09
2018-06-05T07:07:02.291Z,17.94
2018-06-05T07:09:30.642Z,18.06
2018-06-05T07:11:58.953Z,18.23
2018-06-05T07:14:27.452Z,18.28
2018-06-05T07:16:55.926Z,18.19
2018-06-05T07:19:24.254Z,18.26
2018-06-05T07:21:52.766Z,18.18
2018-06-05T07:24:21.160Z,18.25
2018-06-05T07:26:49.390Z,18.43
2018-06-05T07:29:17.677Z,18.69
2018-06-05T07:31:45.971Z,18.89
2018-06-05T07:34:14.271Z,18.89
2018-06-05T07:42:43.581Z,18.24
2018-06-05T07:45:12.497Z,18.28
2018-06-05T07:47:41.223Z,18.41
2018-06-05T07:50:09.944Z,18.55
2018-06-05T07:52:38.301Z,18.55
2018-06-05T07:55:07.195Z,18.42
2018-06-05T07:57:35.687Z,18.57
2018-06-05T08:00:04.445Z,18.64
2018-06-05T08:02:32.879Z,18.43
2018-06-05T08:05:01.264Z,18.38
2018-06-05T08:07:29.665Z,18.24
2018-06-05T08:09:58.250Z,18.32
2018-06-05T08:12:27.394Z,18.45
2018-06-05T08:14:55.869Z,18.50
2018-06-05T08:17:24.277Z,18.38
2018-06-05T08:19:52.643Z,18.33
2018-06-05T08:22:21.093Z,18.37
2018-06-05T08:24:49.557Z,18.52
2018-06-05T08:27:17.923Z,18.66
2018-06-05T08:29:46.343Z,18.28
2018-06-05T08:32:16.908Z,18.09
2018-06-05T08:34:45.451Z,17.95
2018-06-05T08:37:13.849Z,17.98
2018-06-05T08:39:42.190Z,17.84
2018-06-05T08:42:10.560Z,17.94
2018-06-05T08:44:38.999Z,18.02
2018-06-05T08:47:07.743Z,17.93
2018-06-05T08:49:36.171Z,18.14
2018-06-05T08:52:04.502Z,18.46
2018-06-05T08:54:32.866Z,18.42
2018-06-05T08:57:01.196Z,18.33
2018-06-05T08:59:29.568Z,18.39
2018-06-05T09:01:57.915Z,18.32
2018-06-05T09:04:26.307Z,18.58
2018-06-05T09:06:54.577Z,18.73
2018-06-05T09:09:23.233Z,18.71
2018-06-05T09:11:51.647Z,18.56
2018-06-05T09:14:20.150Z,18.44
2018-06-05T09:16:48.545Z,18.56
2018-06-05T09:19:16.949Z,18.67
2018-06-05T09:21:45.326Z,18.47
2018-06-05T09:24:13.761Z,18.42
2018-06-05T09:26:42.107Z,18.62
2018-06-05T09:29:10.329Z,18.83
2018-06-05T09:31:38.858Z,18.80
2018-06-05T09:34:07.232Z,18.55
2018-06-05T09:36:35.569Z,18.69
2018-06-05T09:39:06.729Z,19.03
2018-06-05T09:41:35.258Z,18.83
2018-06-05T09:44:04.092Z,18.83
2018-06-05T09:46:32.483Z,19.04
2018-06-05T09:49:00.829Z,18.74
2018-06-05T09:51:29.212Z,18.85
2018-06-05T09:53:57.448Z,18.82
2018-06-05T09:56:25.843Z,19.05
2018-06-05T09:58:54.113Z,19.10
2018-06-05T10:01:22.655Z,19.32
2018-06-05T10:03:51.163Z,19.55
2018-06-05T10:06:23.339Z,19.26
2018-06-05T10:08:52.723Z,19.33
2018-06-05T10:11:24.169Z,19.27
2018-06-05T10:13:53.771Z,19.55
2018-06-05T10:16:24.955Z,19.36
2018-06-05T10:18:53.364Z,19.25
2018-06-05T10:21:21.721Z,19.14
2018-06-05T10:23:50.092Z,19.32
2018-06-05T10:26:18.457Z,19.24
2018-06-05T10:28:46.938Z,19.09
2018-06-05T10:31:15.249Z,19.21
2018-06-05T10:33:43.870Z,19.04
2018-06-05T10:36:12.271Z,18.99
2018-06-05T10:38:40.647Z,19.16
2018-06-05T10:41:09.216Z,19.24
2018-06-05T10:43:37.804Z,19.28
2018-06-05T10:46:06.279Z,19.55
2018-06-05T10:48:34.464Z,19.46
2018-06-05T10:51:02.835Z,19.56
2018-06-05T10:53:31.251Z,19.41
2018-06-05T10:55:59.665Z,19.27
2018-06-05T10:58:28.157Z,19.58
2018-06-05T11:00:56.531Z,19.76
2018-06-05T11:03:24.922Z,19.89
2018-06-05T11:05:53.369Z,19.83
2018-06-05T11:08:21.728Z,19.85
2018-06-05T11:10:51.324Z,20.00
2018-06-05T11:13:19.839Z,20.30
2018-06-05T11:15:48.215Z,20.00
2018-06-05T11:18:16.616Z,19.87
2018-06-05T11:20:45.080Z,20.10
2018-06-05T11:23:13.475Z,20.60
2018-06-05T11:25:41.868Z,20.76
2018-06-05T11:28:10.284Z,20.35
2018-06-05T11:30:38.737Z,20.39
2018-06-05T11:33:07.105Z,20.60
2018-06-05T11:35:35.600Z,20.60
2018-06-05T11:38:04.000Z,20.88
2018-06-05T11:40:32.487Z,20.70
2018-06-05T11:43:00.854Z,20.32
2018-06-05T11:45:29.223Z,20.60
2018-06-05T11:47:57.815Z,21.08
2018-06-05T11:50:26.249Z,21.37
2018-06-05T11:52:54.594Z,21.47
2018-06-05T11:55:23.176Z,21.32
2018-06-05T11:57:51.564Z,21.60
2018-06-05T12:00:20.984Z,21.30
2018-06-05T12:02:49.429Z,21.01
2018-06-05T12:05:17.748Z,21.00
2018-06-05T12:07:46.313Z,21.31
2018-06-05T12:10:15.555Z,21.63
2018-06-05T12:12:44.059Z,21.74
2018-06-05T12:15:12.481Z,21.59
2018-06-05T12:17:40.858Z,21.38
2018-06-05T12:20:09.202Z,21.10
2018-06-05T12:22:38.538Z,20.83
2018-06-05T12:25:07.097Z,21.14
2018-06-05T12:27:36.425Z,20.75
2018-06-05T12:30:04.912Z,21.21
2018-06-05T12:32:33.273Z,21.22
2018-06-05T12:35:01.655Z,20.93
2018-06-05T12:37:30.070Z,21.40
2018-06-05T12:39:58.335Z,21.80
2018-06-05T12:42:27.082Z,21.90
2018-06-05T12:44:55.513Z,22.02
2018-06-05T12:47:24.063Z,21.76
2018-06-05T12:49:52.628Z,21.34
2018-06-05T12:52:21.244Z,21.47
2018-06-05T12:54:49.468Z,22.11
2018-06-05T12:57:18.908Z,21.33
2018-06-05T12:59:47.296Z,20.77
2018-06-05T13:02:15.723Z,21.25
2018-06-05T13:04:44.006Z,21.75
2018-06-05T13:07:12.228Z,21.09
2018-06-05T13:09:41.089Z,21.31
2018-06-05T13:12:09.346Z,21.53
2018-06-05T13:14:37.839Z,21.36
2018-06-05T13:17:06.293Z,21.32
2018-06-05T13:19:34.779Z,21.70
2018-06-05T13:22:03.241Z,22.20
2018-06-05T13:24:31.566Z,22.13
2018-06-05T13:27:03.499Z,22.27
2018-06-05T13:29:32.496Z,22.19
2018-06-05T13:32:01.048Z,22.63
2018-06-05T13:34:29.438Z,22.70
2018-06-05T13:36:57.899Z,22.50
2018-06-05T13:39:26.241Z,21.96
2018-06-05T13:41:54.773Z,22.27
2018-06-05T13:44:23.067Z,22.38
2018-06-05T13:46:51.381Z,22.43
2018-06-05T13:49:19.823Z,22.96
2018-06-05T13:51:48.308Z,23.21
2018-06-05T13:54:16.703Z,22.30
2018-06-05T13:56:45.043Z,22.09
2018-06-05T13:59:13.525Z,22.48
2018-06-05T14:01:41.938Z,22.58
2018-06-05T14:04:10.338Z,22.75
2018-06-05T14:06:38.719Z,22.76
2018-06-05T14:09:08.707Z,23.17
2018-06-05T14:11:37.155Z,23.14
2018-06-05T14:14:05.807Z,23.39
2018-06-05T14:16:34.162Z,22.65
2018-06-05T14:19:02.577Z,23.25
2018-06-05T14:21:30.906Z,22.85
2018-06-05T14:23:59.334Z,22.36
2018-06-05T14:26:27.962Z,23.09
2018-06-05T14:28:56.412Z,23.10
2018-06-05T14:31:24.763Z,22.85
2018-06-05T14:33:53.154Z,23.24
2018-06-05T14:36:23.237Z,23.33
2018-06-05T14:38:51.610Z,23.69
2018-06-05T14:41:20.124Z,24.22
2018-06-05T14:43:48.353Z,24.11
2018-06-05T14:46:16.814Z,24.28
2018-06-05T14:48:45.098Z,24.05
2018-06-05T14:51:13.674Z,23.87
2018-06-05T14:53:42.269Z,24.11
2018-06-05T14:56:10.728Z,24.29
2018-06-05T14:58:39.079Z,24.34
2018-06-05T15:01:07.526Z,24.92
2018-06-05T15:03:35.880Z,24.55
2018-06-05T15:06:04.235Z,24.55
2018-06-05T15:08:32.541Z,24.71
2018-06-05T15:11:03.006Z,24.23
2018-06-05T15:13:31.372Z,24.82
2018-06-05T15:15:59.909Z,25.03
2018-06-05T15:18:28.327Z,25.48
2018-06-05T15:20:56.560Z,24.81
2018-06-05T15:23:24.950Z,23.83
2018-06-05T15:25:53.561Z,23.61
2018-06-05T15:28:21.925Z,23.81
2018-06-05T15:30:50.738Z,23.57
2018-06-05T15:33:19.390Z,23.00
2018-06-05T15:35:48.829Z,22.87
2018-06-05T15:38:17.450Z,22.89
2018-06-05T15:40:45.870Z,23.14
2018-06-05T15:43:14.362Z,22.97
2018-06-05T15:45:42.713Z,22.97
2018-06-05T15:48:11.299Z,22.67
2018-06-05T15:50:39.697Z,22.65
2018-06-05T15:53:08.103Z,22.57
2018-06-05T15:55:36.566Z,22.71
2018-06-05T15:58:05.023Z,22.79
2018-06-05T16:00:33.465Z,22.80
2018-06-05T16:03:01.978Z,22.72
2018-06-05T16:05:30.412Z,22.66
2018-06-05T16:07:58.741Z,22.86
2018-06-05T16:10:27.123Z,22.67
2018-06-05T16:12:55.546Z,22.64
2018-06-05T16:15:24.636Z,22.58
2018-06-05T16:17:53.071Z,22.55
2018-06-05T16:20:21.538Z,22.50
2018-06-05T16:22:49.937Z,22.57
2018-06-05T16:25:18.469Z,22.65
2018-06-05T16:27:46.919Z,22.83
2018-06-05T16:30:15.315Z,22.80
2018-06-05T16:32:43.664Z,22.62
2018-06-05T16:35:12.035Z,22.46
2018-06-05T16:37:40.331Z,22.66
2018-06-05T16:40:08.713Z,22.74
2018-06-05T16:42:37.213Z,22.83
2018-06-05T16:45:05.693Z,22.81
2018-06-05T16:47:34.339Z,22.46
2018-06-05T16:50:02.838Z,22.52
2018-06-05T16:52:31.228Z,22.51
2018-06-05T16:54:59.546Z,22.50
2018-06-05T16:57:27.825Z,22.25
2018-06-05T16:59:56.245Z,22.21
2018-06-05T17:02:24.834Z,22.22
2018-06-05T17:04:53.367Z,22.41
2018-06-05T17:07:22.002Z,22.36
2018-06-05T17:09:50.593Z,22.40
2018-06-05T17:12:19.567Z,22.28
2018-06-05T17:14:48.572Z,22.24
2018-06-05T17:17:17.723Z,22.13
2018-06-05T17:19:46.750Z,22.07
2018-06-05T17:22:15.665Z,22.08
2018-06-05T17:24:44.686Z,22.06
2018-06-05T17:27:13.649Z,22.18
2018-06-05T17:29:42.347Z,22.30
2018-06-05T17:32:11.051Z,22.22
2018-06-05T17:34:39.374Z,22.18
2018-06-05T17:37:07.785Z,22.13
2018-06-05T17:39:36.282Z,21.96
2018-06-05T17:42:05.538Z,21.90
2018-06-05T17:44:33.860Z,21.79
2018-06-05T17:47:02.360Z,21.66
2018-06-05T17:49:30.742Z,21.44
2018-06-05T17:51:59.378Z,21.57
2018-06-05T17:54:27.768Z,21.54
2018-06-05T17:56:56.183Z,21.59
2018-06-05T17:59:24.961Z,21.62
2018-06-05T18:01:53.529Z,21.48
2018-06-05T18:04:22.398Z,21.49
2018-06-05T18:06:51.419Z,21.45
2018-06-05T18:09:20.127Z,21.52
2018-06-05T18:11:49.521Z,21.58
2018-06-05T18:14:18.534Z,21.38
2018-06-05T18:16:47.554Z,21.30
2018-06-05T18:19:17.051Z,21.30
2018-06-05T18:21:46.545Z,21.19
2018-06-05T18:24:16.075Z,21.18
2018-06-05T18:26:44.597Z,21.31
2018-06-05T18:29:13.026Z,21.26
2018-06-05T18:31:41.715Z,21.26
2018-06-05T18:34:10.168Z,21.11
2018-06-05T18:36:38.556Z,21.10
2018-06-05T18:39:08.388Z,21.08
2018-06-05T18:41:36.833Z,21.12
2018-06-05T18:44:05.231Z,21.13
2018-06-05T18:46:33.597Z,20.97
2018-06-05T18:49:01.974Z,20.95
2018-06-05T18:51:30.332Z,21.01
2018-06-05T18:53:58.822Z,20.99
2018-06-05T18:56:27.283Z,20.99
2018-06-05T18:58:55.698Z,21.00
2018-06-05T19:01:24.202Z,20.93
2018-06-05T19:03:52.594Z,20.89
2018-06-05T19:06:21.044Z,20.88
2018-06-05T19:08:49.266Z,20.79
2018-06-05T19:11:17.845Z,20.88
2018-06-05T19:13:46.182Z,20.90
2018-06-05T19:16:14.702Z,20.83
2018-06-05T19:18:43.133Z,20.76
2018-06-05T19:21:12.661Z,20.70
2018-06-05T19:23:41.347Z,20.82
2018-06-05T19:26:09.755Z,20.67
2018-06-05T19:28:38.208Z,20.75
2018-06-05T19:31:06.762Z,20.65
2018-06-05T19:33:35.230Z,20.58
2018-06-05T19:36:03.765Z,20.64
2018-06-05T19:38:32.175Z,20.60
2018-06-05T19:41:00.666Z,20.58
2018-06-05T19:43:29.119Z,20.53
2018-06-05T19:45:57.666Z,20.58
2018-06-05T19:48:26.147Z,20.45
2018-06-05T19:50:54.659Z,20.48
2018-06-05T19:53:23.139Z,20.48
2018-06-05T19:55:51.571Z,20.40
2018-06-05T19:58:20.090Z,20.31
2018-06-05T20:00:48.741Z,20.31
2018-06-05T20:03:17.215Z,20.35
2018-06-05T20:05:45.698Z,20.26
2018-06-05T20:08:14.303Z,20.31
2018-06-05T20:10:42.753Z,20.34
2018-06-05T20:13:11.229Z,20.33
2018-06-05T20:15:41.578Z,20.22
2018-06-05T20:18:10.083Z,20.18
2018-06-05T20:20:38.750Z,20.22
2018-06-05T20:23:07.871Z,20.09
2018-06-05T20:25:36.550Z,20.10
2018-06-05T20:28:05.034Z,20.03
2018-06-05T20:30:33.398Z,19.93
2018-06-05T20:33:01.810Z,20.01
2018-06-05T20:35:30.198Z,20.07
2018-06-05T20:37:58.775Z,19.94
2018-06-05T20:40:27.451Z,19.95
2018-06-05T20:42:55.858Z,19.97
2018-06-05T20:45:24.159Z,19.96
2018-06-05T20:47:52.634Z,19.88
2018-06-05T20:50:21.072Z,19.86
2018-06-05T20:52:49.504Z,19.72
2018-06-05T20:55:17.994Z,19.81
2018-06-05T20:57:46.366Z,19.86
2018-06-05T21:00:14.805Z,19.80
2018-06-05T21:02:43.231Z,19.74
2018-06-05T21:05:11.760Z,19.73
2018-06-05T21:07:40.206Z,19.72
2018-06-05T21:10:08.790Z,19.66
2018-06-05T21:12:37.178Z,19.63
2018-06-05T21:15:05.606Z,19.68
2018-06-05T21:17:34.122Z,19.59
2018-06-05T21:20:02.702Z,19.55
2018-06-05T21:22:31.269Z,19.50
2018-06-05T21:25:00.881Z,19.55
2018-06-05T21:27:29.416Z,19.49
2018-06-05T21:29:57.823Z,19.49
2018-06-05T21:32:26.211Z,19.46
2018-06-05T21:34:54.557Z,19.31
2018-06-05T21:37:22.935Z,19.42
2018-06-05T21:39:51.265Z,19.41
2018-06-05T21:42:19.835Z,19.38
2018-06-05T21:44:48.227Z,19.36
2018-06-05T21:47:16.659Z,19.40
2018-06-05T21:49:45.039Z,19.45
2018-06-05T21:52:13.425Z,19.32
2018-06-05T21:54:41.879Z,19.37
2018-06-05T21:57:10.253Z,19.26
2018-06-05T21:59:38.674Z,19.27
2018-06-05T22:02:07.299Z,19.16
2018-06-05T22:04:35.652Z,19.18
2018-06-05T22:07:04.086Z,19.11
2018-06-05T22:09:32.403Z,19.09
2018-06-05T22:12:00.804Z,19.09
2018-06-05T22:14:29.205Z,19.16
2018-06-05T22:16:57.623Z,18.99
2018-06-05T22:19:26.034Z,18.94
2018-06-05T22:21:54.375Z,19.00
2018-06-05T22:24:22.685Z,18.91
2018-06-05T22:26:51.048Z,18.82
2018-06-05T22:29:19.668Z,18.82
2018-06-05T22:31:48.048Z,18.70
2018-06-05T22:34:16.430Z,18.83
2018-06-05T22:36:44.810Z,18.77
2018-06-05T22:39:13.240Z,18.77
2018-06-05T22:41:41.574Z,18.81
2018-06-05T22:44:09.930Z,18.66
2018-06-05T22:46:38.304Z,18.80
2018-06-05T22:49:06.737Z,18.82
2018-06-05T22:51:34.952Z,18.66
2018-06-05T22:54:03.342Z,18.56
2018-06-05T22:56:31.905Z,18.56
2018-06-05T22:59:00.310Z,18.71
2018-06-05T23:01:28.686Z,18.69
2018-06-05T23:03:56.889Z,18.64
2018-06-05T23:06:25.303Z,18.48
2018-06-05T23:08:53.738Z,18.51
2018-06-05T23:11:22.074Z,18.50
2018-06-05T23:13:50.464Z,18.34
2018-06-05T23:16:18.834Z,18.42
2018-06-05T23:18:47.172Z,18.36
2018-06-05T23:21:15.723Z,18.33
2018-06-05T23:23:43.913Z,18.35
2018-06-05T23:26:12.401Z,18.34
2018-06-05T23:28:40.782Z,18.53
2018-06-05T23:31:09.149Z,18.54
2018-06-05T23:33:37.388Z,18.42
2018-06-05T23:36:05.825Z,18.36
2018-06-05T23:38:34.151Z,18.34
2018-06-05T23:41:02.523Z,18.25
2018-06-05T23:43:30.914Z,18.13
2018-06-05T23:45:59.329Z,18.02
2018-06-05T23:48:27.700Z,18.11
2018-06-05T23:50:56.046Z,18.21
2018-06-05T23:53:24.417Z,18.11
2018-06-05T23:55:52.822Z,18.11
2018-06-05T23:58:21.230Z,18.07
